Aklavik, Canada
Current Conditions -  °F | °C
As of 3:00 PM on Thursday 18 Dec 2014 (Local Time) from CYKD Reporting Station
Overcast Overcast  
Wind Chill: -8°   Ceiling: 3000
Heat Index:   Visibility: 15mi
Dew Point: -4°   Wind: 5mph
Humidity: 78%   Direction: 290°WNW
Pressure: 29.85"   Gusts: NA
Location:  68.22°N, 135°W
Report Text: CYKD 182200Z 29004KT 15SM OVC030 M17/M20 A2985 RMK SC8 SLP109
Loading
Personal Weather Stations






























Interactive Weather Map New forecast layout! Learn more

10-Day Weather Forecast

Advertisements
Track Severe Weather on mobile